createdAt,value
2018-04-13T00:00:22.484Z,996.25
2018-04-13T00:01:22.472Z,996.24
2018-04-13T00:02:22.455Z,996.26
2018-04-13T00:03:22.441Z,996.28
2018-04-13T00:04:22.426Z,996.25
2018-04-13T00:05:22.421Z,996.23
2018-04-13T00:06:22.403Z,996.23
2018-04-13T00:07:22.387Z,996.24
2018-04-13T00:08:22.371Z,996.25
2018-04-13T00:09:22.358Z,996.22
2018-04-13T00:10:22.352Z,996.19
2018-04-13T00:11:22.336Z,996.22
2018-04-13T00:12:22.321Z,996.24
2018-04-13T00:13:22.308Z,996.26
2018-04-13T00:14:22.292Z,996.29
2018-04-13T00:15:22.276Z,996.26
2018-04-13T00:16:22.272Z,996.29
2018-04-13T00:17:22.248Z,996.34
2018-04-13T00:18:22.232Z,996.38
2018-04-13T00:19:22.222Z,996.37
2018-04-13T00:20:22.203Z,996.36
2018-04-13T00:21:22.192Z,996.39
2018-04-13T00:22:22.181Z,996.40
2018-04-13T00:23:22.162Z,996.41
2018-04-13T00:24:22.152Z,996.43
2018-04-13T00:25:22.141Z,996.46
2018-04-13T00:26:22.120Z,996.44
2018-04-13T00:27:22.102Z,996.41
2018-04-13T00:28:22.093Z,996.42
2018-04-13T00:29:22.077Z,996.40
2018-04-13T00:30:22.071Z,996.37
2018-04-13T00:31:22.052Z,996.38
2018-04-13T00:32:22.034Z,996.33
2018-04-13T00:33:22.027Z,996.30
2018-04-13T00:34:22.009Z,996.34
2018-04-13T00:35:21.993Z,996.31
2018-04-13T00:36:21.983Z,996.33
2018-04-13T00:37:21.964Z,996.31
2018-04-13T00:38:21.949Z,996.31
2018-04-13T00:39:21.944Z,996.30
2018-04-13T00:40:21.922Z,996.26
2018-04-13T00:41:21.913Z,996.28
2018-04-13T00:42:21.894Z,996.29
2018-04-13T00:43:21.885Z,996.28
2018-04-13T00:44:21.879Z,996.33
2018-04-13T00:45:21.853Z,996.34
2018-04-13T00:46:21.844Z,996.26
2018-04-13T00:47:21.825Z,996.28
2018-04-13T00:48:21.817Z,996.29
2018-04-13T00:49:21.800Z,996.27
2018-04-13T00:50:21.785Z,996.30
2018-04-13T00:51:21.775Z,996.32
2018-04-13T00:52:21.760Z,996.35
2018-04-13T00:53:21.737Z,996.35
2018-04-13T00:54:21.731Z,996.35
2018-04-13T00:55:21.718Z,996.38
2018-04-13T00:56:21.820Z,996.35
2018-04-13T00:57:21.680Z,996.37
2018-04-13T00:58:21.672Z,996.37
2018-04-13T00:59:21.655Z,996.40
2018-04-13T01:00:21.644Z,996.41
2018-04-13T01:01:21.628Z,996.43
2018-04-13T01:02:21.617Z,996.41
2018-04-13T01:03:21.605Z,996.43
2018-04-13T01:04:21.689Z,996.45
2018-04-13T01:05:21.572Z,996.42
2018-04-13T01:06:21.553Z,996.39
2018-04-13T01:07:21.552Z,996.41
2018-04-13T01:08:21.533Z,996.39
2018-04-13T01:09:21.522Z,996.37
2018-04-13T01:10:21.503Z,996.38
2018-04-13T01:11:21.490Z,996.38
2018-04-13T01:12:21.568Z,996.37
2018-04-13T01:13:21.451Z,996.37
2018-04-13T01:14:21.471Z,996.39
2018-04-13T01:15:21.423Z,996.39
2018-04-13T01:16:21.491Z,996.37
2018-04-13T01:17:21.403Z,996.38
2018-04-13T01:18:21.535Z,996.37
2018-04-13T01:19:21.372Z,996.37
2018-04-13T01:20:21.354Z,996.41
2018-04-13T01:21:21.343Z,996.42
2018-04-13T01:22:21.434Z,996.38
2018-04-13T01:23:21.315Z,996.44
2018-04-13T01:24:21.299Z,996.38
2018-04-13T01:25:21.282Z,996.40
2018-04-13T01:26:21.323Z,996.38
2018-04-13T01:27:21.265Z,996.36
2018-04-13T01:28:21.292Z,996.35
2018-04-13T01:29:21.242Z,996.35
2018-04-13T01:30:21.214Z,996.32
2018-04-13T01:31:21.195Z,996.31
2018-04-13T01:32:21.183Z,996.33
2018-04-13T01:33:21.168Z,996.37
2018-04-13T01:34:21.153Z,996.36
2018-04-13T01:35:21.139Z,996.36
2018-04-13T01:36:21.124Z,996.38
2018-04-13T01:37:21.110Z,996.38
2018-04-13T01:38:21.097Z,996.39
2018-04-13T01:39:21.085Z,996.43
2018-04-13T01:40:21.071Z,996.42
2018-04-13T01:41:21.057Z,996.43
2018-04-13T01:42:21.038Z,996.44
2018-04-13T01:43:21.024Z,996.43
2018-04-13T01:44:21.013Z,996.44
2018-04-13T01:45:21.003Z,996.45
2018-04-13T01:46:20.986Z,996.49
2018-04-13T01:47:20.973Z,996.47
2018-04-13T01:48:20.952Z,996.47
2018-04-13T01:49:20.936Z,996.48
2018-04-13T01:50:20.924Z,996.50
2018-04-13T01:51:20.914Z,996.49
2018-04-13T01:52:20.903Z,996.47
2018-04-13T01:53:20.881Z,996.51
2018-04-13T01:54:20.869Z,996.51
2018-04-13T01:55:20.851Z,996.53
2018-04-13T01:56:20.840Z,996.53
2018-04-13T01:57:20.823Z,996.53
2018-04-13T01:58:20.812Z,996.54
2018-04-13T01:59:20.793Z,996.54
2018-04-13T02:00:20.783Z,996.56
2018-04-13T02:01:20.773Z,996.57
2018-04-13T02:02:20.753Z,996.56
2018-04-13T02:03:20.743Z,996.56
2018-04-13T02:04:20.727Z,996.56
2018-04-13T02:05:20.713Z,996.57
2018-04-13T02:06:20.749Z,996.56
2018-04-13T02:07:20.679Z,996.57
2018-04-13T02:08:20.664Z,996.56
2018-04-13T02:09:20.650Z,996.57
2018-04-13T02:10:20.633Z,996.56
2018-04-13T02:11:20.619Z,996.55
2018-04-13T02:12:20.607Z,996.59
2018-04-13T02:13:20.597Z,996.55
2018-04-13T02:14:20.588Z,996.57
2018-04-13T02:15:20.563Z,996.60
2018-04-13T02:16:20.551Z,996.61
2018-04-13T02:17:20.540Z,996.60
2018-04-13T02:18:20.521Z,996.63
2018-04-13T02:19:20.505Z,996.61
2018-04-13T02:20:20.492Z,996.64
2018-04-13T02:21:20.478Z,996.64
2018-04-13T02:22:20.461Z,996.64
2018-04-13T02:23:20.448Z,996.67
2018-04-13T02:24:20.431Z,996.67
2018-04-13T02:25:20.417Z,996.69
2018-04-13T02:26:20.404Z,996.70
2018-04-13T02:27:20.386Z,996.72
2018-04-13T02:28:20.373Z,996.71
2018-04-13T02:29:20.366Z,996.72
2018-04-13T02:30:20.342Z,996.73
2018-04-13T02:31:20.327Z,996.76
2018-04-13T02:32:20.317Z,996.72
2018-04-13T02:33:20.300Z,996.75
2018-04-13T02:34:20.404Z,996.74
2018-04-13T02:35:20.272Z,996.74
2018-04-13T02:36:20.263Z,996.69
2018-04-13T02:37:20.242Z,996.71
2018-04-13T02:38:20.228Z,996.74
2018-04-13T02:39:20.222Z,996.71
2018-04-13T02:40:20.199Z,996.69
2018-04-13T02:41:20.193Z,996.69
2018-04-13T02:42:20.167Z,996.67
2018-04-13T02:43:20.152Z,996.67
2018-04-13T02:44:20.147Z,996.72
2018-04-13T02:45:20.123Z,996.71
2018-04-13T02:46:20.107Z,996.70
2018-04-13T02:47:20.187Z,996.76
2018-04-13T02:48:20.080Z,996.74
2018-04-13T02:49:20.063Z,996.74
2018-04-13T02:50:20.052Z,996.77
2018-04-13T02:51:20.041Z,996.78
2018-04-13T02:52:20.022Z,996.74
2018-04-13T02:53:20.024Z,996.79
2018-04-13T02:54:19.992Z,996.80
2018-04-13T02:55:20.060Z,996.85
2018-04-13T02:56:19.963Z,996.84
2018-04-13T02:57:19.997Z,996.86
2018-04-13T02:58:19.934Z,996.87
2018-04-13T02:59:20.012Z,996.92
2018-04-13T03:00:19.897Z,996.89
2018-04-13T03:01:19.931Z,996.92
2018-04-13T03:02:19.870Z,996.94
2018-04-13T03:03:19.862Z,996.95
2018-04-13T03:04:19.840Z,996.97
2018-04-13T03:05:19.921Z,996.97
2018-04-13T03:06:19.811Z,997.03
2018-04-13T03:07:19.886Z,997.01
2018-04-13T03:08:19.785Z,997.02
2018-04-13T03:09:19.760Z,996.99
2018-04-13T03:10:19.760Z,997.02
2018-04-13T03:11:19.732Z,997.03
2018-04-13T03:12:19.717Z,997.03
2018-04-13T03:13:19.700Z,997.03
2018-04-13T03:14:19.691Z,997.06
2018-04-13T03:15:19.676Z,997.08
2018-04-13T03:16:19.655Z,997.14
2018-04-13T03:17:19.643Z,997.11
2018-04-13T03:18:19.631Z,997.15
2018-04-13T03:19:19.613Z,997.13
2018-04-13T03:20:19.603Z,997.10
2018-04-13T03:21:19.583Z,997.15
2018-04-13T03:22:19.572Z,997.15
2018-04-13T03:23:19.547Z,997.17
2018-04-13T03:24:19.534Z,997.16
2018-04-13T03:25:19.522Z,997.15
2018-04-13T03:26:19.503Z,997.16
2018-04-13T03:27:19.493Z,997.17
2018-04-13T03:28:19.477Z,997.23
2018-04-13T03:29:19.460Z,997.25
2018-04-13T03:30:19.445Z,997.28
2018-04-13T03:31:19.428Z,997.33
2018-04-13T03:32:19.413Z,997.33
2018-04-13T03:33:19.397Z,997.34
2018-04-13T03:34:19.383Z,997.33
2018-04-13T03:35:19.366Z,997.34
2018-04-13T03:36:19.352Z,997.33
2018-04-13T03:37:19.333Z,997.34
2018-04-13T03:38:19.329Z,997.33
2018-04-13T03:39:19.306Z,997.33
2018-04-13T03:40:19.291Z,997.35
2018-04-13T03:41:19.277Z,997.32
2018-04-13T03:42:19.266Z,997.29
2018-04-13T03:43:19.249Z,997.30
2018-04-13T03:44:19.249Z,997.28
2018-04-13T03:45:19.218Z,997.29
2018-04-13T03:46:19.200Z,997.28
2018-04-13T03:47:19.187Z,997.26
2018-04-13T03:48:19.173Z,997.28
2018-04-13T03:49:19.150Z,997.26
2018-04-13T03:50:19.146Z,997.25
2018-04-13T03:51:19.124Z,997.25
2018-04-13T03:52:19.114Z,997.28
2018-04-13T03:53:19.091Z,997.24
2018-04-13T03:54:19.079Z,997.25
2018-04-13T03:55:19.062Z,997.29
2018-04-13T03:56:19.048Z,997.29
2018-04-13T03:57:19.031Z,997.34
2018-04-13T03:58:19.022Z,997.38
2018-04-13T03:59:19.002Z,997.38
2018-04-13T04:00:18.991Z,997.41
2018-04-13T04:01:18.972Z,997.43
2018-04-13T04:02:18.958Z,997.42
2018-04-13T04:03:18.946Z,997.46
2018-04-13T04:04:18.926Z,997.42
2018-04-13T04:05:18.913Z,997.42
2018-04-13T04:06:18.893Z,997.45
2018-04-13T04:07:18.879Z,997.47
2018-04-13T04:08:18.865Z,997.46
2018-04-13T04:09:18.847Z,997.43
2018-04-13T04:10:18.834Z,997.50
2018-04-13T04:11:18.816Z,997.50
2018-04-13T04:12:18.810Z,997.53
2018-04-13T04:13:18.788Z,997.56
2018-04-13T04:14:18.770Z,997.54
2018-04-13T04:15:18.752Z,997.54
2018-04-13T04:16:18.741Z,997.59
2018-04-13T04:17:18.723Z,997.58
2018-04-13T04:18:18.709Z,997.59
2018-04-13T04:19:18.691Z,997.57
2018-04-13T04:20:18.680Z,997.59
2018-04-13T04:21:18.667Z,997.55
2018-04-13T04:22:18.647Z,997.56
2018-04-13T04:23:18.631Z,997.57
2018-04-13T04:24:18.620Z,997.59
2018-04-13T04:25:18.601Z,997.59
2018-04-13T04:26:18.589Z,997.60
2018-04-13T04:27:18.573Z,997.58
2018-04-13T04:28:18.557Z,997.57
2018-04-13T04:29:18.542Z,997.56
2018-04-13T04:30:18.526Z,997.57
2018-04-13T04:31:18.513Z,997.56
2018-04-13T04:32:18.495Z,997.59
2018-04-13T04:33:18.526Z,997.57
2018-04-13T04:34:18.463Z,997.55
2018-04-13T04:35:18.449Z,997.54
2018-04-13T04:36:18.432Z,997.52
2018-04-13T04:37:18.421Z,997.49
2018-04-13T04:38:18.416Z,997.46
2018-04-13T04:39:18.394Z,997.45
2018-04-13T04:40:18.373Z,997.41
2018-04-13T04:41:18.360Z,997.44
2018-04-13T04:42:18.341Z,997.43
2018-04-13T04:43:18.325Z,997.45
2018-04-13T04:44:18.317Z,997.48
2018-04-13T04:45:18.294Z,997.48
2018-04-13T04:46:18.290Z,997.49
2018-04-13T04:47:18.272Z,997.54
2018-04-13T04:48:18.251Z,997.57
2018-04-13T04:49:18.238Z,997.54
2018-04-13T04:50:18.220Z,997.55
2018-04-13T04:51:18.210Z,997.53
2018-04-13T04:52:18.195Z,997.58
2018-04-13T04:53:18.179Z,997.59
2018-04-13T04:54:18.163Z,997.53
2018-04-13T04:55:18.142Z,997.58
2018-04-13T04:56:18.134Z,997.62
2018-04-13T04:57:18.113Z,997.61
2018-04-13T04:58:18.103Z,997.62
2018-04-13T04:59:18.090Z,997.59
2018-04-13T05:00:18.069Z,997.61
2018-04-13T05:01:18.060Z,997.67
2018-04-13T05:02:18.043Z,997.65
2018-04-13T05:03:18.033Z,997.66
2018-04-13T05:04:18.012Z,997.64
2018-04-13T05:05:17.993Z,997.70
2018-04-13T05:06:17.988Z,997.71
2018-04-13T05:07:17.962Z,997.74
2018-04-13T05:08:17.951Z,997.77
2018-04-13T05:09:17.945Z,997.75
2018-04-13T05:10:17.918Z,997.78
2018-04-13T05:11:17.900Z,997.77
2018-04-13T05:12:17.892Z,997.73
2018-04-13T05:13:17.872Z,997.79
2018-04-13T05:14:17.863Z,997.80
2018-04-13T05:15:17.837Z,997.84
2018-04-13T05:16:17.831Z,997.85
2018-04-13T05:17:17.816Z,997.89
2018-04-13T05:18:17.802Z,997.90
2018-04-13T05:19:17.782Z,997.95
2018-04-13T05:20:17.766Z,997.95
2018-04-13T05:21:17.751Z,997.96
2018-04-13T05:22:17.742Z,998.02
2018-04-13T05:23:17.721Z,998.00
2018-04-13T05:24:17.702Z,998.00
2018-04-13T05:25:17.695Z,998.00
2018-04-13T05:26:17.675Z,998.00
2018-04-13T05:27:17.663Z,998.01
2018-04-13T05:28:17.655Z,997.97
2018-04-13T05:29:17.660Z,997.98
2018-04-13T05:30:17.619Z,998.00
2018-04-13T05:31:17.607Z,997.98
2018-04-13T05:32:17.589Z,997.97
2018-04-13T05:33:17.574Z,997.93
2018-04-13T05:34:17.559Z,997.96
2018-04-13T05:35:17.623Z,997.93
2018-04-13T05:36:17.527Z,997.97
2018-04-13T05:37:17.518Z,997.97
2018-04-13T05:38:17.595Z,997.95
2018-04-13T05:39:17.494Z,997.99
2018-04-13T05:40:17.473Z,998.03
2018-04-13T05:41:17.450Z,998.03
2018-04-13T05:42:17.439Z,998.05
2018-04-13T05:43:17.423Z,998.09
2018-04-13T05:44:17.410Z,998.12
2018-04-13T05:45:17.394Z,998.12
2018-04-13T05:46:17.379Z,998.18
2018-04-13T05:47:17.362Z,998.23
2018-04-13T05:48:17.356Z,998.24
2018-04-13T05:49:17.338Z,998.26
2018-04-13T05:50:17.323Z,998.29
2018-04-13T05:51:17.305Z,998.32
2018-04-13T05:52:17.291Z,998.31
2018-04-13T05:53:17.278Z,998.28
2018-04-13T05:54:17.263Z,998.25
2018-04-13T05:55:17.243Z,998.24
2018-04-13T05:56:17.230Z,998.20
2018-04-13T05:57:17.222Z,998.17
2018-04-13T05:58:17.205Z,998.15
2018-04-13T05:59:17.192Z,998.12
2018-04-13T06:00:17.179Z,998.10
2018-04-13T06:01:17.162Z,998.15
2018-04-13T06:02:17.146Z,998.13
2018-04-13T06:03:17.135Z,998.13
2018-04-13T06:04:17.115Z,998.11
2018-04-13T06:05:17.108Z,998.11
2018-04-13T06:06:17.089Z,998.08
2018-04-13T06:07:17.075Z,998.08
2018-04-13T06:08:17.057Z,998.09
2018-04-13T06:09:17.043Z,998.09
2018-04-13T06:10:17.033Z,998.07
2018-04-13T06:11:17.035Z,998.07
2018-04-13T06:12:17.004Z,998.07
2018-04-13T06:13:16.989Z,998.07
2018-04-13T06:14:16.977Z,998.08
2018-04-13T06:15:16.967Z,998.11
2018-04-13T06:16:16.944Z,998.03
2018-04-13T06:17:16.931Z,998.05
2018-04-13T06:18:16.924Z,998.02
2018-04-13T06:19:16.905Z,998.04
2018-04-13T06:20:16.894Z,998.08
2018-04-13T06:21:16.885Z,998.11
2018-04-13T06:22:16.864Z,998.10
2018-04-13T06:23:16.855Z,998.17
2018-04-13T06:24:16.897Z,998.21
2018-04-13T06:25:16.822Z,998.26
2018-04-13T06:26:16.804Z,998.30
2018-04-13T06:27:16.804Z,998.33
2018-04-13T06:28:16.782Z,998.39
2018-04-13T06:29:16.764Z,998.43
2018-04-13T06:30:16.782Z,998.51
2018-04-13T06:31:16.736Z,998.48
2018-04-13T06:32:16.728Z,998.49
2018-04-13T06:33:16.706Z,998.51
2018-04-13T06:34:16.695Z,998.51
2018-04-13T06:35:16.693Z,998.52
2018-04-13T06:36:16.673Z,998.57
2018-04-13T06:37:16.725Z,998.63
2018-04-13T06:38:16.641Z,998.67
2018-04-13T06:39:16.648Z,998.78
2018-04-13T06:40:16.615Z,998.87
2018-04-13T06:41:16.609Z,999.00
2018-04-13T06:42:16.586Z,999.11
2018-04-13T06:43:16.569Z,999.12
2018-04-13T06:44:16.565Z,999.13
2018-04-13T06:45:16.560Z,999.06
2018-04-13T06:46:16.535Z,998.98
2018-04-13T06:47:16.515Z,998.89
2018-04-13T06:48:16.503Z,998.78
2018-04-13T06:49:16.506Z,998.71
2018-04-13T06:50:16.474Z,998.67
2018-04-13T06:51:16.462Z,998.65
2018-04-13T06:52:16.458Z,998.67
2018-04-13T06:53:16.434Z,998.64
2018-04-13T06:54:16.429Z,998.59
2018-04-13T06:55:16.411Z,998.57
2018-04-13T06:56:16.395Z,998.56
2018-04-13T06:57:16.387Z,998.48
2018-04-13T06:58:16.366Z,998.51
2018-04-13T06:59:16.359Z,998.50
2018-04-13T07:00:16.344Z,998.50
2018-04-13T07:01:16.359Z,998.50
2018-04-13T07:02:16.315Z,998.50
2018-04-13T07:03:16.306Z,998.52
2018-04-13T07:04:16.287Z,998.56
2018-04-13T07:05:16.273Z,998.56
2018-04-13T07:06:16.258Z,998.56
2018-04-13T07:07:16.247Z,998.56
2018-04-13T07:08:16.240Z,998.62
2018-04-13T07:09:16.224Z,998.65
2018-04-13T07:10:16.207Z,998.70
2018-04-13T07:11:16.195Z,998.72
2018-04-13T07:12:16.178Z,998.75
2018-04-13T07:13:16.171Z,998.77
2018-04-13T07:14:16.156Z,998.79
2018-04-13T07:15:16.146Z,998.83
2018-04-13T07:16:16.132Z,998.84
2018-04-13T07:17:16.116Z,998.83
2018-04-13T07:18:16.104Z,998.90
2018-04-13T07:19:16.153Z,998.91
2018-04-13T07:20:16.081Z,998.88
2018-04-13T07:21:16.076Z,998.87
2018-04-13T07:22:16.052Z,998.88
2018-04-13T07:23:16.046Z,998.94
2018-04-13T07:24:16.036Z,998.90
2018-04-13T07:25:16.022Z,998.91
2018-04-13T07:26:16.016Z,998.98
2018-04-13T07:27:16.005Z,998.93
2018-04-13T07:28:15.985Z,998.85
2018-04-13T07:29:15.986Z,998.82
2018-04-13T07:30:15.966Z,998.80
2018-04-13T07:31:15.958Z,998.80
2018-04-13T07:32:15.945Z,998.81
2018-04-13T07:33:15.936Z,998.75
2018-04-13T07:34:15.925Z,998.72
2018-04-13T07:35:16.118Z,998.67
2018-04-13T07:36:15.905Z,998.69
2018-04-13T07:37:16.174Z,998.66
2018-04-13T07:38:15.895Z,998.68
2018-04-13T07:39:15.901Z,998.77
2018-04-13T07:40:15.865Z,998.73
2018-04-13T07:41:15.855Z,998.81
2018-04-13T07:42:15.856Z,998.75
2018-04-13T07:43:15.836Z,998.71
2018-04-13T07:44:15.821Z,998.72
2018-04-13T07:45:15.810Z,998.71
2018-04-13T07:46:15.796Z,998.70
2018-04-13T07:47:15.782Z,998.72
2018-04-13T07:48:15.775Z,998.72
2018-04-13T07:49:15.766Z,998.72
2018-04-13T07:50:15.770Z,998.68
2018-04-13T07:51:15.743Z,998.65
2018-04-13T07:52:15.741Z,998.62
2018-04-13T07:53:15.726Z,998.61
2018-04-13T07:54:15.712Z,998.62
2018-04-13T07:55:15.695Z,998.59
2018-04-13T07:56:15.801Z,998.60
2018-04-13T07:57:15.676Z,998.61
2018-04-13T07:58:15.816Z,998.64
2018-04-13T07:59:15.666Z,998.61
2018-04-13T08:00:15.691Z,998.61
2018-04-13T08:01:15.636Z,998.65
2018-04-13T08:02:15.618Z,998.66
2018-04-13T08:03:15.606Z,998.68
2018-04-13T08:04:15.596Z,998.68
2018-04-13T08:05:15.589Z,998.71
2018-04-13T08:06:15.618Z,998.69
2018-04-13T08:07:15.565Z,998.74
2018-04-13T08:08:15.650Z,998.77
2018-04-13T08:09:15.536Z,998.80
2018-04-13T08:10:16.193Z,998.80
2018-04-13T08:11:15.511Z,998.80
2018-04-13T08:12:15.604Z,998.84
2018-04-13T08:13:15.485Z,998.83
2018-04-13T08:14:15.529Z,998.86
2018-04-13T08:15:15.462Z,998.91
2018-04-13T08:16:15.463Z,998.96
2018-04-13T08:17:15.437Z,998.96
2018-04-13T08:18:15.426Z,998.97
2018-04-13T08:19:15.415Z,999.00
2018-04-13T08:20:15.400Z,999.00
2018-04-13T08:21:15.393Z,998.99
2018-04-13T08:22:15.375Z,999.02
2018-04-13T08:23:15.417Z,999.04
2018-04-13T08:24:15.356Z,999.04
2018-04-13T08:25:15.347Z,999.04
2018-04-13T08:26:15.334Z,999.08
2018-04-13T08:27:15.315Z,999.09
2018-04-13T08:28:15.309Z,999.08
2018-04-13T08:29:15.295Z,999.11
2018-04-13T08:30:15.280Z,999.12
2018-04-13T08:31:15.276Z,999.10
2018-04-13T08:32:15.283Z,999.15
2018-04-13T08:33:15.264Z,999.16
2018-04-13T08:34:15.302Z,999.16
2018-04-13T08:35:15.226Z,999.18
2018-04-13T08:36:15.215Z,999.16
2018-04-13T08:37:15.196Z,999.15
2018-04-13T08:38:15.231Z,999.17
2018-04-13T08:39:15.203Z,999.19
2018-04-13T08:40:15.181Z,999.16
2018-04-13T08:41:15.154Z,999.15
2018-04-13T08:42:15.135Z,999.13
2018-04-13T08:43:15.152Z,999.17
2018-04-13T08:44:15.112Z,999.17
2018-04-13T08:45:15.095Z,999.17
2018-04-13T08:46:15.089Z,999.23
2018-04-13T08:47:15.082Z,999.23
2018-04-13T08:48:15.148Z,999.24
2018-04-13T08:49:15.185Z,999.26
2018-04-13T08:50:15.168Z,999.27
2018-04-13T08:51:15.059Z,999.23
2018-04-13T08:52:15.013Z,999.29
2018-04-13T08:53:15.007Z,999.27
2018-04-13T08:54:14.990Z,999.26
2018-04-13T08:55:14.973Z,999.25
2018-04-13T08:56:14.962Z,999.29
2018-04-13T08:57:14.955Z,999.28
2018-04-13T08:58:14.939Z,999.27
2018-04-13T08:59:14.930Z,999.31
2018-04-13T09:00:14.917Z,999.28
2018-04-13T09:01:14.900Z,999.29
2018-04-13T09:02:14.894Z,999.30
2018-04-13T09:03:14.871Z,999.32
2018-04-13T09:04:14.862Z,999.33
2018-04-13T09:05:14.850Z,999.34
2018-04-13T09:06:14.837Z,999.38
2018-04-13T09:07:14.841Z,999.40
2018-04-13T09:08:14.812Z,999.43
2018-04-13T09:09:14.809Z,999.46
2018-04-13T09:10:14.800Z,999.49
2018-04-13T09:11:14.781Z,999.53
2018-04-13T09:12:14.765Z,999.53
2018-04-13T09:13:14.758Z,999.59
2018-04-13T09:14:14.739Z,999.60
2018-04-13T09:15:14.736Z,999.66
2018-04-13T09:16:14.715Z,999.67
2018-04-13T09:17:14.701Z,999.73
2018-04-13T09:18:14.700Z,999.75
2018-04-13T09:19:14.684Z,999.79
2018-04-13T09:20:14.664Z,999.72
2018-04-13T09:21:14.653Z,999.77
2018-04-13T09:22:14.645Z,999.76
2018-04-13T09:23:14.680Z,999.77
2018-04-13T09:24:14.620Z,999.79
2018-04-13T09:25:14.616Z,999.84
2018-04-13T09:26:14.597Z,999.77
2018-04-13T09:27:14.589Z,999.74
2018-04-13T09:28:14.571Z,999.73
2018-04-13T09:29:14.559Z,999.75
2018-04-13T09:30:14.552Z,999.71
2018-04-13T09:31:14.548Z,999.68
2018-04-13T09:32:14.524Z,999.67
2018-04-13T09:33:14.515Z,999.66
2018-04-13T09:34:14.503Z,999.66
2018-04-13T09:35:14.541Z,999.65
2018-04-13T09:36:14.480Z,999.61
2018-04-13T09:37:14.472Z,999.64
2018-04-13T09:38:14.454Z,999.64
2018-04-13T09:39:14.445Z,999.59
2018-04-13T09:40:14.445Z,999.60
2018-04-13T09:41:14.425Z,999.61
2018-04-13T09:42:14.409Z,999.65
2018-04-13T09:43:14.402Z,999.63
2018-04-13T09:44:14.386Z,999.68
2018-04-13T09:45:14.379Z,999.71
2018-04-13T09:46:14.364Z,999.71
2018-04-13T09:47:14.354Z,999.69
2018-04-13T09:48:14.342Z,999.77
2018-04-13T09:49:14.350Z,999.75
2018-04-13T09:50:14.327Z,999.73
2018-04-13T09:51:14.308Z,999.71
2018-04-13T09:52:14.296Z,999.70
2018-04-13T09:54:14.274Z,999.65
2018-04-13T09:55:14.264Z,999.67
2018-04-13T09:56:14.252Z,999.66
2018-04-13T09:57:14.297Z,999.68
2018-04-13T09:58:14.237Z,999.67
2018-04-13T09:59:14.223Z,999.69
2018-04-13T10:00:14.216Z,999.65
2018-04-13T10:01:14.205Z,999.64
2018-04-13T10:02:14.203Z,999.69
2018-04-13T10:03:14.183Z,999.67
2018-04-13T10:04:14.175Z,999.66
2018-04-13T10:05:14.170Z,999.66
2018-04-13T10:06:14.259Z,999.69
2018-04-13T10:07:14.135Z,999.64
2018-04-13T10:08:14.221Z,999.65
2018-04-13T10:09:14.115Z,999.67
2018-04-13T10:10:14.211Z,999.67
2018-04-13T10:11:14.091Z,999.66
2018-04-13T10:12:14.091Z,999.64
2018-04-13T10:13:14.070Z,999.67
2018-04-13T10:14:14.128Z,999.64
2018-04-13T10:15:14.053Z,999.67
2018-04-13T10:16:14.096Z,999.65
2018-04-13T10:17:14.028Z,999.66
2018-04-13T10:18:14.028Z,999.65
2018-04-13T10:19:14.010Z,999.67
2018-04-13T10:20:13.992Z,999.66
2018-04-13T10:21:13.984Z,999.68
2018-04-13T10:22:13.972Z,999.70
2018-04-13T10:23:13.963Z,999.72
2018-04-13T10:24:13.953Z,999.71
2018-04-13T10:25:13.942Z,999.71
2018-04-13T10:26:13.927Z,999.74
2018-04-13T10:27:13.924Z,999.74
2018-04-13T10:28:13.908Z,999.70
2018-04-13T10:29:13.897Z,999.71
2018-04-13T10:30:13.887Z,999.69
2018-04-13T10:31:13.874Z,999.73
2018-04-13T10:32:13.865Z,999.78
2018-04-13T10:33:13.851Z,999.76
2018-04-13T10:34:13.848Z,999.75
2018-04-13T10:35:13.826Z,999.77
2018-04-13T10:36:13.822Z,999.78
2018-04-13T10:37:13.812Z,999.79
2018-04-13T10:38:13.796Z,999.80
2018-04-13T10:39:13.785Z,999.77
2018-04-13T10:40:13.777Z,999.81
2018-04-13T10:41:13.763Z,999.83
2018-04-13T10:42:13.749Z,999.84
2018-04-13T10:43:13.745Z,999.89
2018-04-13T10:44:13.725Z,999.87
2018-04-13T10:45:13.717Z,999.89
2018-04-13T10:46:13.713Z,999.90
2018-04-13T10:47:13.693Z,999.92
2018-04-13T10:48:13.688Z,999.92
2018-04-13T10:49:13.670Z,999.95
2018-04-13T10:50:13.658Z,999.92
2018-04-13T10:51:13.649Z,999.93
2018-04-13T10:52:13.635Z,999.98
2018-04-13T10:53:13.627Z,999.93
2018-04-13T10:54:13.617Z,999.99
2018-04-13T10:55:13.604Z,999.99
2018-04-13T10:56:13.594Z,999.99
2018-04-13T10:57:13.582Z,1000.02
2018-04-13T10:58:13.576Z,1000.01
2018-04-13T10:59:13.563Z,1000.04
2018-04-13T11:00:13.558Z,1000.02
2018-04-13T11:01:13.545Z,1000.02
2018-04-13T11:02:13.522Z,1000.06
2018-04-13T11:03:13.514Z,1000.02
2018-04-13T11:04:13.505Z,1000.04
2018-04-13T11:05:13.492Z,1000.03
2018-04-13T11:06:13.492Z,1000.04
2018-04-13T11:07:13.473Z,1000.02
2018-04-13T11:08:13.460Z,1000.05
2018-04-13T11:09:13.453Z,1000.04
2018-04-13T11:10:13.485Z,1000.02
2018-04-13T11:11:13.429Z,1000.05
2018-04-13T11:12:13.425Z,1000.03
2018-04-13T11:13:13.403Z,1000.05
2018-04-13T11:14:13.392Z,1000.05
2018-04-13T11:15:13.383Z,1000.08
2018-04-13T11:16:13.372Z,1000.14
2018-04-13T11:17:13.373Z,1000.13
2018-04-13T11:18:13.350Z,1000.13
2018-04-13T11:19:13.339Z,1000.17
2018-04-13T11:20:13.333Z,1000.16
2018-04-13T11:21:13.365Z,1000.17
2018-04-13T11:22:13.309Z,1000.19
2018-04-13T11:23:13.295Z,1000.17
2018-04-13T11:24:13.281Z,1000.22
2018-04-13T11:25:13.319Z,1000.26
2018-04-13T11:26:13.263Z,1000.25
2018-04-13T11:27:13.252Z,1000.27
2018-04-13T11:28:13.254Z,1000.24
2018-04-13T11:29:13.228Z,1000.23
2018-04-13T11:30:13.210Z,1000.25
2018-04-13T11:31:13.202Z,1000.31
2018-04-13T11:32:13.199Z,1000.28
2018-04-13T11:33:13.184Z,1000.31
2018-04-13T11:34:13.170Z,1000.27
2018-04-13T11:35:13.155Z,1000.27
2018-04-13T11:36:13.147Z,1000.27
2018-04-13T11:37:13.141Z,1000.25
2018-04-13T11:38:13.131Z,1000.19
2018-04-13T11:39:13.111Z,1000.20
2018-04-13T11:40:13.103Z,1000.18
2018-04-13T11:41:13.096Z,1000.20
2018-04-13T11:42:13.083Z,1000.22
2018-04-13T11:43:13.071Z,1000.20
2018-04-13T11:44:13.052Z,1000.19
2018-04-13T11:45:13.052Z,1000.21
2018-04-13T11:46:13.042Z,1000.19
2018-04-13T11:47:13.023Z,1000.21
2018-04-13T11:48:13.013Z,1000.19
2018-04-13T11:49:13.014Z,1000.20
2018-04-13T11:50:12.996Z,1000.25
2018-04-13T11:51:12.981Z,1000.23
2018-04-13T11:52:12.961Z,1000.21
2018-04-13T11:53:12.954Z,1000.27
2018-04-13T11:54:12.939Z,1000.33
2018-04-13T11:55:12.931Z,1000.28
2018-04-13T11:56:12.919Z,1000.31
2018-04-13T11:57:12.907Z,1000.32
2018-04-13T11:58:12.894Z,1000.32
2018-04-13T11:59:12.885Z,1000.50
2018-04-13T12:00:12.871Z,1000.54
2018-04-13T12:01:12.861Z,1000.61
2018-04-13T12:02:12.854Z,1000.64
2018-04-13T12:03:12.839Z,1000.65
2018-04-13T12:04:12.830Z,1000.68
2018-04-13T12:05:12.818Z,1000.70
2018-04-13T12:06:12.814Z,1000.64
2018-04-13T12:07:12.792Z,1000.62
2018-04-13T12:08:12.784Z,1000.63
2018-04-13T12:09:12.771Z,1000.61
2018-04-13T12:10:12.758Z,1000.61
2018-04-13T12:11:12.743Z,1000.58
2018-04-13T12:12:12.738Z,1000.55
2018-04-13T12:13:12.727Z,1000.58
2018-04-13T12:14:12.708Z,1000.61
2018-04-13T12:15:12.697Z,1000.60
2018-04-13T12:16:12.686Z,1000.58
2018-04-13T12:17:12.670Z,1000.66
2018-04-13T12:18:12.719Z,1000.69
2018-04-13T12:19:12.649Z,1000.71
2018-04-13T12:20:12.639Z,1000.80
2018-04-13T12:21:12.623Z,1000.77
2018-04-13T12:22:12.634Z,1000.85
2018-04-13T12:23:12.618Z,1000.79
2018-04-13T12:24:12.588Z,1000.76
2018-04-13T12:25:12.578Z,1000.79
2018-04-13T12:26:12.562Z,1000.77